Weather Outlook - 23th June 2022(12 pm)

Model guidance suggests that relatively fair conditions could be expected during the next 48 hours as the Atlantic High Pressure System dominates the weather pattern across SVG. However, by Sunday evening, unstable conditions should begin to affect our islands and moderate showers are anticipated into Monday.
 
Light to fresh(10-30km/h) easterly to east south easterly trades would cross the islands during the next 48 hours before slightly increasing(35km/h) and becoming east north easterly on Sunday.
 

Seas are currently slight to moderate in open waters with swells peaking near 1.0m on the western coasts and up to 1.5m on the eastern coasts. Seas could deteriorate on Sunday as wind speeds increase. In addition, slight haze intrusion will remain across the island chain during the next few days but concentrations could increase significantly on Sunday.

Aviation WX

[Source: ADDS]
METAR
TVSA 011500Z 08009KT 050V110 9999 SCT016CB BKN034 27/24 Q1012 NOSIG =
TVSA 011100Z 0112/0212 06014KT 9999 BKN016 BKN040 TEMPO 0112/0118 10025G35KT 2000 TSRA BKN006CB OVC010 PROB30 TEMPO 0118/0124 4000 RA BKN010 OVC032
TAF
TVSA 011100Z 0112/0212 06014KT 9999 BKN016 BKN040 TEMPO 0112/0118 10025G35KT 2000 TSRA BKN006CB OVC010 PROB30 TEMPO 0118/0124 4000 RA BKN010 OVC032 =
SR / SS: 09:41 / 22:35 UTC (Sunrise Sunset 2022-07-01)